createdAt,value
2022-07-27T00:01:07.034Z,1.00
2022-07-27T00:03:35.566Z,1.00
2022-07-27T00:06:05.100Z,1.00
2022-07-27T00:08:33.670Z,1.00
2022-07-27T00:11:01.521Z,1.00
2022-07-27T00:13:29.614Z,1.00
2022-07-27T00:15:57.564Z,1.00
2022-07-27T00:18:25.503Z,1.00
2022-07-27T00:20:53.395Z,1.00
2022-07-27T00:23:22.621Z,1.00
2022-07-27T00:25:50.413Z,1.00
2022-07-27T00:28:18.286Z,1.00
2022-07-27T00:30:46.132Z,4.30
2022-07-27T00:33:16.946Z,4.90
2022-07-27T00:35:45.632Z,11.50
2022-07-27T00:38:13.455Z,13.20
2022-07-27T00:40:42.835Z,17.60
2022-07-27T00:43:10.723Z,25.10
2022-07-27T00:45:38.895Z,27.70
2022-07-27T00:48:07.044Z,25.70
2022-07-27T00:50:35.295Z,29.70
2022-07-27T00:53:04.861Z,34.50
2022-07-27T00:55:33.285Z,35.50
2022-07-27T00:58:03.653Z,36.30
2022-07-27T01:00:31.594Z,34.70
2022-07-27T01:03:02.551Z,36.40
2022-07-27T01:05:37.928Z,44.90
2022-07-27T01:08:13.579Z,47.10
2022-07-27T01:10:42.984Z,48.10
2022-07-27T01:13:13.394Z,50.30
2022-07-27T01:15:42.663Z,45.90
2022-07-27T01:18:13.454Z,50.40
2022-07-27T01:20:41.635Z,46.70
2022-07-27T01:23:10.977Z,47.50
2022-07-27T01:25:41.233Z,49.80
2022-07-27T01:28:09.130Z,47.20
2022-07-27T01:30:37.044Z,49.10
2022-07-27T01:33:05.968Z,50.20
2022-07-27T01:35:33.855Z,55.30
2022-07-27T01:38:01.695Z,54.10
2022-07-27T01:40:30.946Z,56.90
2022-07-27T01:42:58.770Z,54.40
2022-07-27T01:45:27.013Z,55.60
2022-07-27T01:47:54.874Z,60.50
2022-07-27T01:50:22.709Z,57.40
2022-07-27T01:52:50.582Z,59.00
2022-07-27T01:55:18.473Z,60.20
2022-07-27T01:57:47.678Z,59.60
2022-07-27T02:00:15.865Z,58.90
2022-07-27T02:02:43.719Z,59.70
2022-07-27T02:05:12.456Z,59.90
2022-07-27T02:07:40.793Z,61.30
2022-07-27T02:10:08.970Z,63.60
2022-07-27T02:12:35.815Z,63.70
2022-07-27T02:15:06.275Z,63.30
2022-07-27T02:17:34.218Z,60.60
2022-07-27T02:20:03.422Z,63.30
2022-07-27T02:22:31.344Z,66.20
2022-07-27T02:24:59.272Z,68.00
2022-07-27T02:27:27.097Z,68.10
2022-07-27T02:29:54.953Z,69.70
2022-07-27T02:32:24.200Z,69.40
2022-07-27T02:34:52.102Z,70.80
2022-07-27T02:37:19.982Z,69.70
2022-07-27T02:39:47.853Z,71.20
2022-07-27T02:42:15.797Z,69.60
2022-07-27T02:44:43.797Z,69.50
2022-07-27T02:47:11.695Z,62.10
2022-07-27T02:49:40.924Z,66.80
2022-07-27T02:52:08.781Z,69.10
2022-07-27T02:54:36.622Z,77.10
2022-07-27T02:57:04.953Z,78.20
2022-07-27T02:59:32.908Z,80.20
2022-07-27T03:02:00.805Z,80.30
2022-07-27T03:04:28.814Z,75.10
2022-07-27T03:06:58.040Z,71.40
2022-07-27T03:09:33.405Z,67.90
2022-07-27T03:12:01.551Z,63.40
2022-07-27T03:14:29.556Z,56.70
2022-07-27T03:16:57.406Z,54.40
2022-07-27T03:19:29.970Z,48.40
2022-07-27T03:21:59.615Z,42.80
2022-07-27T03:24:27.474Z,45.30
2022-07-27T03:26:55.272Z,42.80
2022-07-27T03:29:23.130Z,42.20
2022-07-27T03:31:50.975Z,43.30
2022-07-27T03:34:18.872Z,48.10
2022-07-27T03:36:46.708Z,46.20
2022-07-27T03:39:16.030Z,47.10
2022-07-27T03:41:43.865Z,46.80
2022-07-27T03:44:11.721Z,48.30
2022-07-27T03:46:39.577Z,49.10
2022-07-27T03:49:13.831Z,47.70
2022-07-27T03:51:42.253Z,43.50
2022-07-27T03:54:10.082Z,44.50
2022-07-27T03:56:39.283Z,47.00
2022-07-27T03:59:07.131Z,44.20
2022-07-27T04:01:35.028Z,35.00
2022-07-27T04:04:02.928Z,38.20
2022-07-27T04:06:30.760Z,40.60
2022-07-27T04:09:08.601Z,33.00
2022-07-27T04:11:51.002Z,36.70
2022-07-27T04:14:19.639Z,32.70
2022-07-27T04:16:47.639Z,37.40
2022-07-27T04:19:16.082Z,34.50
2022-07-27T04:21:44.140Z,25.80
2022-07-27T04:24:12.017Z,28.10
2022-07-27T04:26:39.886Z,29.60
2022-07-27T04:29:09.319Z,32.60
2022-07-27T04:31:37.611Z,31.20
2022-07-27T04:34:05.446Z,29.30
2022-07-27T04:36:33.272Z,25.50
2022-07-27T04:39:01.122Z,30.60
2022-07-27T04:41:30.314Z,28.00
2022-07-27T04:43:58.649Z,17.20
2022-07-27T04:46:29.621Z,12.60
2022-07-27T04:48:57.716Z,1.00
2022-07-27T04:51:25.624Z,1.80
2022-07-27T04:53:58.538Z,2.60
2022-07-27T04:56:26.815Z,3.00
2022-07-27T04:58:54.710Z,1.20
2022-07-27T05:01:23.786Z,1.00
2022-07-27T05:03:53.121Z,2.60
2022-07-27T05:06:21.040Z,5.10
2022-07-27T05:08:48.885Z,1.00
2022-07-27T05:11:16.700Z,1.00
2022-07-27T05:13:44.530Z,1.00
2022-07-27T05:16:12.686Z,1.00
2022-07-27T05:18:41.093Z,1.00
2022-07-27T05:21:10.332Z,1.00
2022-07-27T05:23:38.284Z,1.00
2022-07-27T05:26:06.122Z,1.00
2022-07-27T05:28:34.008Z,1.00
2022-07-27T05:31:01.829Z,1.00
2022-07-27T05:33:29.721Z,1.00
2022-07-27T05:35:57.896Z,1.00
2022-07-27T05:38:27.088Z,1.00
2022-07-27T05:40:54.903Z,1.00
2022-07-27T05:43:22.743Z,1.00
2022-07-27T05:45:50.626Z,1.00
2022-07-27T05:48:18.554Z,1.00
2022-07-27T05:50:46.370Z,1.00
2022-07-27T05:53:14.240Z,1.00
2022-07-27T05:55:58.455Z,1.00
2022-07-27T05:58:27.829Z,1.00
2022-07-27T06:00:56.397Z,1.00
2022-07-27T06:03:24.607Z,1.00
2022-07-27T06:05:52.584Z,1.00
2022-07-27T06:08:19.427Z,1.00
2022-07-27T06:10:48.608Z,1.00
2022-07-27T06:13:16.448Z,1.00
2022-07-27T06:15:44.257Z,1.00
2022-07-27T06:18:18.090Z,1.00
2022-07-27T06:20:46.813Z,1.00
2022-07-27T06:23:14.684Z,1.00
2022-07-27T06:25:42.520Z,1.00
2022-07-27T06:28:11.685Z,1.00
2022-07-27T06:30:39.534Z,1.00
2022-07-27T06:33:07.389Z,1.00
2022-07-27T06:35:39.056Z,1.00
2022-07-27T06:38:07.092Z,1.00
2022-07-27T06:40:34.974Z,1.00
2022-07-27T06:43:02.818Z,1.00
2022-07-27T06:45:32.202Z,1.00
2022-07-27T06:48:00.017Z,1.00
2022-07-27T06:50:27.966Z,1.00
2022-07-27T06:52:55.808Z,1.00
2022-07-27T06:55:23.632Z,1.00
2022-07-27T06:57:51.713Z,1.00
2022-07-27T07:00:19.581Z,1.00
2022-07-27T07:02:58.853Z,1.00
2022-07-27T07:05:26.959Z,1.00
2022-07-27T07:07:55.374Z,1.00
2022-07-27T07:10:24.246Z,1.00
2022-07-27T07:12:55.505Z,1.00
2022-07-27T07:15:23.834Z,1.00
2022-07-27T07:17:51.783Z,1.00
2022-07-27T07:20:21.055Z,1.00
2022-07-27T07:22:48.872Z,1.00
2022-07-27T07:25:16.828Z,1.00
2022-07-27T07:27:44.678Z,1.00
2022-07-27T07:30:13.134Z,1.00
2022-07-27T07:32:40.982Z,1.00
2022-07-27T07:35:09.340Z,1.00
2022-07-27T07:37:38.587Z,1.00
2022-07-27T07:40:40.095Z,1.00
2022-07-27T07:42:56.455Z,1.00
2022-07-27T07:45:24.902Z,1.00
2022-07-27T07:47:53.911Z,1.00
2022-07-27T07:50:22.615Z,1.00
2022-07-27T07:52:52.620Z,1.00
2022-07-27T07:55:21.182Z,1.00
2022-07-27T07:57:50.685Z,1.00
2022-07-27T08:00:19.439Z,1.00
2022-07-27T08:02:48.529Z,1.00
2022-07-27T08:05:17.299Z,1.00
2022-07-27T08:07:45.774Z,1.00
2022-07-27T08:10:15.665Z,1.00
2022-07-27T08:12:44.866Z,1.00
2022-07-27T08:15:13.305Z,1.00
2022-07-27T08:17:41.147Z,1.00
2022-07-27T08:20:09.424Z,1.00
2022-07-27T08:22:37.818Z,1.00
2022-07-27T08:25:06.627Z,1.00
2022-07-27T08:27:39.160Z,1.00
2022-07-27T08:30:10.442Z,1.00
2022-07-27T08:32:49.437Z,1.00
2022-07-27T08:35:17.990Z,1.00
2022-07-27T08:37:45.883Z,1.00
2022-07-27T08:43:05.153Z,1.00
2022-07-27T08:45:33.656Z,1.00
2022-07-27T08:48:01.601Z,1.00
2022-07-27T08:50:30.625Z,1.00
2022-07-27T08:53:04.234Z,1.00
2022-07-27T08:55:32.693Z,1.00
2022-07-27T08:58:03.549Z,1.00
2022-07-27T09:00:33.809Z,1.00
2022-07-27T09:03:01.728Z,1.00
2022-07-27T09:05:37.244Z,1.00
2022-07-27T09:08:13.029Z,1.00
2022-07-27T09:10:41.164Z,1.00
2022-07-27T09:13:19.660Z,1.00
2022-07-27T09:16:16.109Z,1.00
2022-07-27T09:18:38.016Z,1.00
2022-07-27T09:21:13.136Z,1.00
2022-07-27T09:23:41.560Z,1.00
2022-07-27T09:26:29.989Z,1.00
2022-07-27T09:29:00.112Z,1.00
2022-07-27T09:31:29.812Z,1.00
2022-07-27T09:33:59.180Z,1.00
2022-07-27T09:36:28.084Z,1.00
2022-07-27T09:39:02.087Z,1.00
2022-07-27T09:41:39.920Z,1.00
2022-07-27T09:46:57.126Z,1.00
2022-07-27T09:49:29.396Z,1.00
2022-07-27T09:52:01.087Z,1.00
2022-07-27T09:54:42.083Z,1.00
2022-07-27T09:57:10.592Z,1.00
2022-07-27T09:59:38.441Z,1.00
2022-07-27T10:02:08.197Z,1.00
2022-07-27T10:04:36.127Z,1.00
2022-07-27T10:07:07.328Z,1.00
2022-07-27T10:09:38.766Z,1.00
2022-07-27T10:12:06.915Z,1.00
2022-07-27T10:14:35.262Z,1.00
2022-07-27T10:17:03.597Z,1.00
2022-07-27T10:19:35.358Z,1.00
2022-07-27T10:22:03.638Z,1.00
2022-07-27T10:24:34.049Z,1.00
2022-07-27T10:27:18.321Z,1.00
2022-07-27T10:29:47.861Z,1.00
2022-07-27T10:32:23.705Z,1.00
2022-07-27T10:34:52.880Z,1.00
2022-07-27T10:37:25.179Z,1.00
2022-07-27T10:40:14.021Z,1.00
2022-07-27T10:42:41.895Z,1.00
2022-07-27T10:45:10.392Z,1.00
2022-07-27T10:47:40.267Z,1.00
2022-07-27T10:50:21.473Z,1.00
2022-07-27T10:52:50.421Z,1.00
2022-07-27T10:55:36.868Z,1.00
2022-07-27T10:58:38.865Z,1.00
2022-07-27T11:01:07.393Z,1.00
2022-07-27T11:03:42.649Z,1.00
2022-07-27T11:11:50.432Z,1.00
2022-07-27T11:14:19.238Z,1.00
2022-07-27T11:17:17.142Z,1.00
2022-07-27T11:19:46.135Z,1.00
2022-07-27T11:22:28.716Z,1.00
2022-07-27T11:24:56.926Z,1.00
2022-07-27T11:27:25.439Z,1.00
2022-07-27T11:29:53.527Z,1.00
2022-07-27T11:32:21.381Z,1.00
2022-07-27T11:34:49.734Z,1.00
2022-07-27T11:37:19.941Z,1.00
2022-07-27T11:40:20.257Z,1.00
2022-07-27T11:42:38.049Z,1.00
2022-07-27T11:45:07.671Z,1.00
2022-07-27T11:47:36.943Z,1.00
2022-07-27T11:50:08.149Z,1.00
2022-07-27T11:52:37.419Z,1.00
2022-07-27T11:55:05.657Z,1.00
2022-07-27T11:57:36.040Z,1.00
2022-07-27T12:00:05.979Z,1.00
2022-07-27T12:02:33.951Z,1.00
2022-07-27T12:05:03.292Z,1.00
2022-07-27T12:07:32.355Z,1.00
2022-07-27T12:10:02.965Z,1.00
2022-07-27T12:12:31.476Z,1.00
2022-07-27T12:15:11.744Z,1.00
2022-07-27T12:17:44.853Z,1.00
2022-07-27T12:20:13.540Z,1.00
2022-07-27T12:22:43.603Z,1.00
2022-07-27T12:25:29.537Z,1.00
2022-07-27T12:27:58.972Z,1.00
2022-07-27T12:30:31.201Z,1.00
2022-07-27T12:32:59.352Z,1.00
2022-07-27T12:35:31.554Z,1.00
2022-07-27T12:38:02.780Z,1.00
2022-07-27T12:40:32.720Z,1.00
2022-07-27T12:43:01.216Z,1.00
2022-07-27T12:45:33.652Z,1.00
2022-07-27T12:48:08.476Z,1.00
2022-07-27T12:50:36.645Z,1.00
2022-07-27T12:53:05.078Z,1.00
2022-07-27T12:55:34.536Z,1.00
2022-07-27T12:58:02.386Z,1.00
2022-07-27T13:00:33.832Z,1.00
2022-07-27T13:03:03.176Z,1.00
2022-07-27T13:05:31.523Z,1.00
2022-07-27T13:07:59.984Z,1.00
2022-07-27T13:10:28.221Z,1.00
2022-07-27T13:12:57.520Z,1.00
2022-07-27T13:15:25.774Z,1.00
2022-07-27T13:17:53.821Z,1.00
2022-07-27T13:20:21.685Z,1.00
2022-07-27T13:22:49.603Z,1.00
2022-07-27T13:25:18.036Z,1.00
2022-07-27T13:27:46.143Z,1.00
2022-07-27T13:30:16.240Z,1.00
2022-07-27T13:32:44.769Z,1.00
2022-07-27T13:35:13.295Z,1.00
2022-07-27T13:37:41.881Z,1.00
2022-07-27T13:40:10.186Z,1.00
2022-07-27T13:42:38.225Z,1.00
2022-07-27T13:45:11.217Z,1.00
2022-07-27T13:47:41.599Z,1.00
2022-07-27T13:50:17.018Z,1.00
2022-07-27T13:52:46.482Z,1.00
2022-07-27T13:55:14.821Z,1.00
2022-07-27T13:57:42.799Z,1.00
2022-07-27T14:00:11.321Z,1.00
2022-07-27T14:02:39.598Z,1.00
2022-07-27T14:05:09.586Z,1.00
2022-07-27T14:07:41.233Z,1.00
2022-07-27T14:10:29.440Z,1.00
2022-07-27T14:12:59.307Z,1.00
2022-07-27T14:15:27.577Z,1.00
2022-07-27T14:17:55.470Z,1.00
2022-07-27T14:20:24.831Z,1.00
2022-07-27T14:22:52.710Z,1.00
2022-07-27T14:25:20.578Z,1.00
2022-07-27T14:27:48.416Z,1.00
2022-07-27T14:30:20.590Z,1.00
2022-07-27T14:32:48.951Z,1.00
2022-07-27T14:35:16.884Z,1.00
2022-07-27T14:37:46.560Z,1.00
2022-07-27T14:40:15.381Z,1.00
2022-07-27T14:42:43.264Z,1.00
2022-07-27T14:45:11.595Z,1.00
2022-07-27T14:47:39.460Z,1.00
2022-07-27T14:50:09.565Z,1.00
2022-07-27T14:52:37.643Z,1.00
2022-07-27T14:55:07.526Z,1.00
2022-07-27T14:57:35.373Z,1.00
2022-07-27T15:00:09.730Z,1.00
2022-07-27T15:02:38.080Z,1.00
2022-07-27T15:05:06.596Z,1.00
2022-07-27T15:07:34.664Z,1.00
2022-07-27T15:10:02.505Z,1.00
2022-07-27T15:12:36.134Z,1.00
2022-07-27T15:15:06.561Z,1.00
2022-07-27T15:17:34.462Z,1.00
2022-07-27T15:20:07.074Z,1.00
2022-07-27T15:22:34.937Z,1.00
2022-07-27T15:25:03.639Z,1.00
2022-07-27T15:27:32.917Z,1.00
2022-07-27T15:30:00.811Z,1.00
2022-07-27T15:32:28.677Z,1.00
2022-07-27T15:34:57.830Z,1.00
2022-07-27T15:37:25.656Z,1.00
2022-07-27T15:39:53.739Z,1.00
2022-07-27T15:42:21.659Z,1.00
2022-07-27T15:44:51.375Z,1.00
2022-07-27T15:47:19.183Z,1.00
2022-07-27T15:49:46.971Z,1.00
2022-07-27T15:52:14.810Z,1.00
2022-07-27T15:54:45.798Z,1.00
2022-07-27T15:57:13.723Z,1.00
2022-07-27T15:59:41.591Z,1.00
2022-07-27T16:02:11.505Z,1.00
2022-07-27T16:04:40.626Z,1.00
2022-07-27T16:07:08.543Z,1.00
2022-07-27T16:09:37.075Z,1.00
2022-07-27T16:12:05.087Z,1.00
2022-07-27T16:14:32.956Z,1.00
2022-07-27T16:17:00.798Z,1.00
2022-07-27T16:19:29.995Z,1.00
2022-07-27T16:21:57.845Z,1.00
2022-07-27T16:24:25.788Z,1.00
2022-07-27T16:26:53.623Z,1.00
2022-07-27T16:29:21.439Z,1.00
2022-07-27T16:31:49.354Z,1.00
2022-07-27T16:34:17.213Z,1.00
2022-07-27T16:36:47.145Z,1.00
2022-07-27T16:39:15.301Z,1.00
2022-07-27T16:41:43.588Z,1.00
2022-07-27T16:44:11.490Z,1.00
2022-07-27T16:46:39.359Z,1.00
2022-07-27T16:49:07.284Z,1.00
2022-07-27T16:51:35.419Z,1.00
2022-07-27T16:54:04.954Z,1.00
2022-07-27T16:56:33.061Z,1.00
2022-07-27T16:59:01.070Z,1.00
2022-07-27T17:01:30.288Z,1.00
2022-07-27T17:03:58.671Z,1.00
2022-07-27T17:06:27.199Z,1.00
2022-07-27T17:08:55.212Z,1.00
2022-07-27T17:11:25.039Z,1.00
2022-07-27T17:13:58.226Z,1.00
2022-07-27T17:16:27.620Z,1.00
2022-07-27T17:18:55.519Z,1.00
2022-07-27T17:21:23.366Z,1.00
2022-07-27T17:23:51.246Z,1.00
2022-07-27T17:26:19.099Z,1.00
2022-07-27T17:28:51.898Z,1.00
2022-07-27T17:31:21.139Z,1.00
2022-07-27T17:33:49.484Z,1.00
2022-07-27T17:36:17.537Z,1.00
2022-07-27T17:38:45.764Z,1.00
2022-07-27T17:41:13.746Z,1.00
2022-07-27T17:43:41.685Z,1.00
2022-07-27T17:46:12.710Z,1.00
2022-07-27T17:48:40.778Z,1.00
2022-07-27T17:51:10.373Z,1.00
2022-07-27T17:53:38.292Z,1.00
2022-07-27T17:56:08.099Z,1.00
2022-07-27T17:58:35.992Z,1.00
2022-07-27T18:01:04.137Z,1.00
2022-07-27T18:03:33.461Z,1.00
2022-07-27T18:06:01.775Z,1.00
2022-07-27T18:08:29.724Z,1.00
2022-07-27T18:10:57.624Z,1.00
2022-07-27T18:13:39.478Z,1.00
2022-07-27T18:16:09.063Z,1.00
2022-07-27T18:18:38.721Z,1.00
2022-07-27T18:21:06.709Z,1.00
2022-07-27T18:23:34.658Z,1.00
2022-07-27T18:26:02.845Z,1.00
2022-07-27T18:28:33.455Z,1.00
2022-07-27T18:31:05.213Z,1.00
2022-07-27T18:33:35.013Z,1.00
2022-07-27T18:36:06.559Z,1.00
2022-07-27T18:38:34.526Z,1.00
2022-07-27T18:41:02.894Z,1.00
2022-07-27T18:43:30.784Z,1.00
2022-07-27T18:45:58.772Z,1.00
2022-07-27T18:48:27.456Z,1.00
2022-07-27T18:50:55.379Z,1.00
2022-07-27T18:53:24.572Z,1.00
2022-07-27T18:55:56.274Z,1.00
2022-07-27T18:58:25.043Z,1.00
2022-07-27T19:00:52.953Z,1.00
2022-07-27T19:03:22.808Z,1.00
2022-07-27T19:05:52.919Z,1.00
2022-07-27T19:08:21.084Z,1.00
2022-07-27T19:10:51.096Z,1.00
2022-07-27T19:13:18.948Z,1.00
2022-07-27T19:15:46.744Z,1.00
2022-07-27T19:18:14.600Z,1.00
2022-07-27T19:20:42.577Z,1.00
2022-07-27T19:23:12.172Z,1.00
2022-07-27T19:25:40.267Z,1.00
2022-07-27T19:28:09.451Z,1.00
2022-07-27T19:30:38.708Z,1.00
2022-07-27T19:33:06.973Z,1.00
2022-07-27T19:35:35.082Z,1.00
2022-07-27T19:38:02.919Z,1.00
2022-07-27T19:40:43.993Z,1.00
2022-07-27T19:43:14.693Z,1.00
2022-07-27T19:45:42.782Z,1.00
2022-07-27T19:48:10.892Z,1.00
2022-07-27T19:50:39.793Z,1.00
2022-07-27T19:53:07.652Z,1.00
2022-07-27T19:55:35.597Z,1.00
2022-07-27T19:58:03.457Z,1.00
2022-07-27T20:00:33.545Z,1.00
2022-07-27T20:03:01.495Z,1.00
2022-07-27T20:05:29.572Z,1.00
2022-07-27T20:07:57.391Z,1.00
2022-07-27T20:10:26.032Z,1.00
2022-07-27T20:12:53.937Z,1.00
2022-07-27T20:15:22.479Z,1.00
2022-07-27T20:17:52.033Z,1.00
2022-07-27T20:20:20.007Z,1.00
2022-07-27T20:22:47.894Z,1.00
2022-07-27T20:25:16.142Z,1.00
2022-07-27T20:27:44.302Z,1.00
2022-07-27T20:30:14.414Z,1.00
2022-07-27T20:32:42.263Z,1.00
2022-07-27T20:35:11.859Z,1.00
2022-07-27T20:37:39.713Z,1.00
2022-07-27T20:40:09.656Z,1.00
2022-07-27T20:42:37.488Z,1.00
2022-07-27T20:45:10.077Z,1.00
2022-07-27T20:47:39.097Z,1.00
2022-07-27T20:50:07.676Z,1.00
2022-07-27T20:52:37.296Z,1.00
2022-07-27T20:55:05.466Z,1.00
2022-07-27T20:57:33.312Z,1.00
2022-07-27T21:00:01.139Z,1.00
2022-07-27T21:02:29.061Z,1.00
2022-07-27T21:04:56.942Z,1.00
2022-07-27T21:07:24.832Z,1.00
2022-07-27T21:09:54.016Z,1.00
2022-07-27T21:12:21.846Z,1.00
2022-07-27T21:14:49.889Z,1.00
2022-07-27T21:17:18.069Z,1.00
2022-07-27T21:19:45.913Z,1.00
2022-07-27T21:22:13.768Z,1.00
2022-07-27T21:24:40.653Z,1.00
2022-07-27T21:27:10.051Z,1.00
2022-07-27T21:29:38.505Z,1.00
2022-07-27T21:32:06.560Z,1.00
2022-07-27T21:34:34.521Z,1.00
2022-07-27T21:37:02.452Z,1.00
2022-07-27T21:39:30.505Z,1.00
2022-07-27T21:42:02.195Z,1.00
2022-07-27T21:44:32.405Z,1.00
2022-07-27T21:47:00.224Z,1.00
2022-07-27T21:49:34.055Z,1.00
2022-07-27T21:52:02.765Z,1.00
2022-07-27T21:54:30.810Z,1.00
2022-07-27T21:56:58.682Z,1.70
2022-07-27T21:59:26.516Z,4.70
2022-07-27T22:01:55.906Z,10.70
2022-07-27T22:04:23.801Z,7.20
2022-07-27T22:06:51.789Z,10.00
2022-07-27T22:09:20.087Z,10.30
2022-07-27T22:11:47.952Z,9.10
2022-07-27T22:14:16.443Z,11.80
2022-07-27T22:16:44.838Z,10.70
2022-07-27T22:19:21.120Z,15.30
2022-07-27T22:21:48.953Z,13.80
2022-07-27T22:24:17.384Z,16.30
2022-07-27T22:26:45.424Z,17.50
2022-07-27T22:29:13.292Z,15.90
2022-07-27T22:31:41.143Z,20.10
2022-07-27T22:34:09.291Z,16.50
2022-07-27T22:36:38.478Z,16.10
2022-07-27T22:39:06.363Z,18.50
2022-07-27T22:41:34.203Z,18.90
2022-07-27T22:44:02.032Z,17.30
2022-07-27T22:46:30.148Z,20.50
2022-07-27T22:48:58.155Z,20.90
2022-07-27T22:51:26.754Z,25.70
2022-07-27T22:54:16.485Z,20.40
2022-07-27T22:56:44.746Z,23.80
2022-07-27T22:59:12.592Z,24.10
2022-07-27T23:01:47.300Z,25.90
2022-07-27T23:04:16.294Z,27.00
2022-07-27T23:06:44.672Z,29.60
2022-07-27T23:09:12.514Z,34.40
2022-07-27T23:11:42.100Z,35.10
2022-07-27T23:14:10.026Z,27.00
2022-07-27T23:16:38.025Z,27.20
2022-07-27T23:19:06.140Z,26.80
2022-07-27T23:21:33.997Z,29.10
2022-07-27T23:24:03.078Z,29.40
2022-07-27T23:26:32.976Z,31.40
2022-07-27T23:29:02.989Z,34.50
2022-07-27T23:31:30.903Z,34.40
2022-07-27T23:33:58.813Z,35.00
2022-07-27T23:36:26.682Z,33.50
2022-07-27T23:38:54.560Z,30.40
2022-07-27T23:41:22.483Z,37.30
2022-07-27T23:43:50.334Z,36.20
2022-07-27T23:46:19.573Z,36.00
2022-07-27T23:48:47.528Z,34.70
2022-07-27T23:51:18.631Z,31.90
2022-07-27T23:53:47.510Z,35.20
2022-07-27T23:56:15.448Z,38.70
2022-07-27T23:58:43.433Z,36.80
